Time;durP1;ratioP1;P1;durP2;ratioP2;P2;SDS_P1;SDS_P2;PMS_P1;PMS_P2;Temp;Humidity;BMP_temperature;BMP_pressure;BME280_temperature;BME280_humidity;BME280_pressure;Samples;Min_cycle;Max_cycle;Signal;HPM_P1;HPM_P2
2024/01/16 00:00:11;;;;;;;3.58;1.60;;;;;;;-0.51;78.88;98922.09;341125;28;5277;-77
2024/01/16 00:00:23;;;;;;;4.72;1.73;;;;;;;-0.58;78.30;98933.16;337844;28;16806;-76
2024/01/16 00:00:35;;;;;;;6.45;1.65;;;;;;;-0.57;79.13;98929.75;341089;28;5448;-77
2024/01/16 00:00:47;;;;;;;5.82;1.77;;;;;;;-0.55;78.26;98922.09;339957;28;5677;-77
2024/01/16 00:00:59;;;;;;;5.20;2.17;;;;;;;-0.49;79.06;98932.31;337337;28;17796;-77
2024/01/16 00:01:12;;;;;;;4.78;2.20;;;;;;;-0.48;78.36;98923.81;340127;28;4697;-77
2024/01/16 00:01:24;;;;;;;4.95;2.03;;;;;;;-0.54;78.87;98922.09;337193;28;18071;-77
2024/01/16 00:01:36;;;;;;;3.65;1.88;;;;;;;-0.58;79.03;98938.28;338621;28;5302;-77
2024/01/16 00:01:48;;;;;;;4.05;2.00;;;;;;;-0.65;78.91;98931.44;335688;28;12285;-76
2024/01/16 00:02:00;;;;;;;3.50;1.90;;;;;;;-0.68;78.82;98932.31;333460;28;17279;-76
2024/01/16 00:02:12;;;;;;;3.40;1.70;;;;;;;-0.66;79.30;98934.88;340010;28;5329;-77
2024/01/16 00:02:24;;;;;;;3.20;1.80;;;;;;;-0.73;79.22;98930.59;336121;28;11792;-77
2024/01/16 00:02:36;;;;;;;3.55;1.83;;;;;;;-0.82;79.26;98934.84;338435;28;4688;-77
2024/01/16 00:02:48;;;;;;;3.97;1.90;;;;;;;-0.75;79.36;98924.63;336077;28;13902;-77
2024/01/16 00:03:01;;;;;;;3.92;1.77;;;;;;;-0.70;79.77;98933.16;339053;28;4833;-77
2024/01/16 00:03:13;;;;;;;3.20;1.55;;;;;;;-0.66;78.75;98929.75;339147;28;5390;-77
2024/01/16 00:03:25;;;;;;;3.20;1.80;;;;;;;-0.70;78.90;98928.06;337612;28;11660;-76
2024/01/16 00:03:38;;;;;;;3.50;1.80;;;;;;;-0.77;79.56;98924.63;339827;28;4577;-77
2024/01/16 00:03:50;;;;;;;3.80;1.80;;;;;;;-0.82;79.86;98922.06;337325;28;19511;-76
2024/01/16 00:04:02;;;;;;;3.65;1.80;;;;;;;-0.87;79.56;98926.31;340394;28;4669;-77
2024/01/16 00:04:14;;;;;;;3.13;1.67;;;;;;;-0.91;79.77;98928.84;337718;28;18064;-77
2024/01/16 00:04:30;;;;;;;3.08;1.63;;;;;;;-0.92;80.19;98928.00;340332;28;4556;-77
2024/01/16 00:04:43;;;;;;;4.45;1.92;;;;;;;-0.89;79.55;98927.16;337728;28;17602;-76
2024/01/16 00:04:55;;;;;;;4.13;1.87;;;;;;;-0.92;80.33;98928.00;332772;28;17839;-76
2024/01/16 00:05:07;;;;;;;3.50;2.03;;;;;;;-0.92;79.81;98930.56;339942;28;4723;-76
2024/01/16 00:05:19;;;;;;;2.85;1.75;;;;;;;-0.93;80.06;98923.75;337706;28;12948;-76
2024/01/16 00:05:32;;;;;;;2.55;1.58;;;;;;;-0.95;80.49;98930.53;339923;28;4631;-77
2024/01/16 00:05:44;;;;;;;2.47;1.60;;;;;;;-0.92;79.78;98922.91;339845;28;5214;-77
2024/01/16 00:05:56;;;;;;;2.42;1.65;;;;;;;-0.93;79.87;98926.31;337483;28;18064;-77
2024/01/16 00:06:08;;;;;;;3.00;1.85;;;;;;;-0.94;80.03;98924.59;340942;28;4602;-77
2024/01/16 00:06:20;;;;;;;5.35;2.10;;;;;;;-0.96;80.57;98926.31;339948;28;5415;-77
2024/01/16 00:06:32;;;;;;;5.00;2.00;;;;;;;-0.97;80.05;98929.69;329778;28;18031;-78
2024/01/16 00:06:44;;;;;;;2.88;2.00;;;;;;;-0.97;79.99;98924.59;339949;28;5336;-77
2024/01/16 00:06:59;;;;;;;2.92;2.10;;;;;;;-0.97;80.83;98923.75;336252;28;18856;-77
2024/01/16 00:07:11;;;;;;;3.25;2.10;;;;;;;-0.95;80.27;98917.78;334653;28;18115;-76
2024/01/16 00:07:23;;;;;;;3.05;1.77;;;;;;;-0.95;80.13;98922.91;339450;28;4507;-77
2024/01/16 00:07:39;;;;;;;3.13;1.70;;;;;;;-0.94;80.13;98924.59;341415;28;5330;-77
2024/01/16 00:07:51;;;;;;;3.33;1.70;;;;;;;-0.93;80.27;98923.75;334999;28;17523;-77
2024/01/16 00:08:03;;;;;;;3.55;1.75;;;;;;;-0.92;80.18;98927.19;341462;28;4689;-78
2024/01/16 00:08:15;;;;;;;2.97;1.70;;;;;;;-0.93;80.23;98930.56;338588;28;4532;-77
2024/01/16 00:08:27;;;;;;;4.20;1.83;;;;;;;-0.87;80.58;98923.75;331694;28;15131;-77
2024/01/16 00:08:39;;;;;;;4.35;1.92;;;;;;;-0.82;80.32;98927.19;340205;28;5191;-77
2024/01/16 00:08:51;;;;;;;5.63;1.92;;;;;;;-0.86;79.79;98925.47;337081;28;18110;-77
2024/01/16 00:09:04;;;;;;;4.32;1.83;;;;;;;-0.92;80.47;98928.00;338900;28;5452;-77
2024/01/16 00:09:16;;;;;;;3.22;1.92;;;;;;;-0.90;79.85;98930.56;340392;28;4561;-77
2024/01/16 00:09:28;;;;;;;2.67;1.77;;;;;;;-0.86;79.77;98928.03;331371;28;18137;-77
2024/01/16 00:09:40;;;;;;;2.80;1.50;;;;;;;-0.86;80.00;98928.03;340777;28;5683;-77
2024/01/16 00:09:53;;;;;;;3.60;1.63;;;;;;;-0.83;80.48;98922.91;339512;28;6066;-76
2024/01/16 00:10:09;;;;;;;3.25;1.63;;;;;;;-0.77;79.81;98926.34;341416;28;5565;-77
2024/01/16 00:10:21;;;;;;;3.35;1.67;;;;;;;-0.74;79.58;98931.47;337906;28;17449;-77
2024/01/16 00:10:32;;;;;;;3.28;1.60;;;;;;;-0.74;79.60;98931.47;337098;28;19052;-77
2024/01/16 00:10:45;;;;;;;4.35;1.70;;;;;;;-0.77;79.92;98931.44;333191;28;4690;-76
2024/01/16 00:10:56;;;;;;;4.18;1.70;;;;;;;-0.77;79.94;98926.34;336455;28;14128;-76
2024/01/16 00:11:08;;;;;;;5.10;1.73;;;;;;;-0.75;79.60;98930.59;338612;28;5107;-76
2024/01/16 00:11:20;;;;;;;4.82;1.88;;;;;;;-0.78;79.31;98932.31;338713;28;4993;-76
2024/01/16 00:11:32;;;;;;;5.30;1.77;;;;;;;-0.81;79.91;98930.56;335862;28;17811;-76
2024/01/16 00:11:44;;;;;;;6.43;2.03;;;;;;;-0.83;79.42;98933.13;338575;28;5064;-76
2024/01/16 00:11:57;;;;;;;5.88;2.03;;;;;;;-0.83;79.88;98930.56;335992;28;16426;-76
2024/01/16 00:12:09;;;;;;;5.47;1.98;;;;;;;-0.87;79.38;98931.41;338589;28;5393;-76
2024/01/16 00:12:21;;;;;;;5.03;1.85;;;;;;;-0.85;80.14;98929.72;334317;28;4607;-76
2024/01/16 00:12:33;;;;;;;5.75;2.35;;;;;;;-0.83;79.67;98927.16;335950;28;17925;-76
2024/01/16 00:12:45;;;;;;;6.00;2.42;;;;;;;-0.81;80.22;98936.53;338401;28;4672;-76
2024/01/16 00:12:57;;;;;;;4.65;2.08;;;;;;;-0.83;80.18;98930.56;338666;28;5108;-76
2024/01/16 00:13:09;;;;;;;3.13;1.80;;;;;;;-0.79;79.79;98933.13;337160;28;18079;-76
2024/01/16 00:13:21;;;;;;;4.30;1.70;;;;;;;-0.82;79.74;98939.09;341071;28;4524;-76
2024/01/16 00:13:33;;;;;;;5.75;1.92;;;;;;;-0.70;79.82;98938.28;337239;28;11204;-76
2024/01/16 00:13:45;;;;;;;4.32;1.70;;;;;;;-0.65;79.62;98921.25;339741;28;4619;-76
2024/01/16 00:13:57;;;;;;;2.90;1.70;;;;;;;-0.55;79.06;98922.94;335660;28;4515;-76
2024/01/16 00:14:09;;;;;;;4.45;2.10;;;;;;;-0.51;78.87;98914.44;337372;28;18296;-76
2024/01/16 00:14:21;;;;;;;5.50;2.15;;;;;;;-0.45;79.19;98923.81;338580;28;5189;-76
2024/01/16 00:14:36;;;;;;;4.93;1.83;;;;;;;-0.43;78.55;98930.59;336864;28;12163;-76
2024/01/16 00:14:49;;;;;;;3.38;1.88;;;;;;;-0.46;78.38;98933.16;337104;28;17186;-76
2024/01/16 00:15:01;;;;;;;3.10;1.83;;;;;;;-0.48;77.95;98936.59;338854;28;4552;-76
2024/01/16 00:15:13;;;;;;;2.60;1.67;;;;;;;-0.53;78.54;98928.91;338443;28;4551;-76
2024/01/16 00:15:25;;;;;;;2.55;1.52;;;;;;;-0.58;78.87;98932.28;335650;28;18398;-76
2024/01/16 00:15:37;;;;;;;2.67;1.67;;;;;;;-0.61;78.65;98930.59;338783;28;5419;-76
2024/01/16 00:15:49;;;;;;;3.95;1.70;;;;;;;-0.68;78.68;98931.47;336005;28;18093;-76
2024/01/16 00:16:03;;;;;;;4.15;1.80;;;;;;;-0.75;79.27;98930.59;339515;28;4539;-76
2024/01/16 00:16:15;;;;;;;4.70;2.08;;;;;;;-0.76;79.48;98940.81;335888;28;17598;-76
2024/01/16 00:16:27;;;;;;;4.18;2.30;;;;;;;-0.82;79.23;98929.72;339995;28;5445;-76
2024/01/16 00:16:43;;;;;;;4.60;2.15;;;;;;;-0.77;79.51;98928.88;336832;28;17778;-76
2024/01/16 00:16:55;;;;;;;4.07;1.83;;;;;;;-0.77;79.50;98934.84;332821;28;4554;-76
2024/01/16 00:17:07;;;;;;;2.92;1.60;;;;;;;-0.76;79.46;98933.16;340177;28;5588;-76
2024/01/16 00:17:19;;;;;;;2.88;1.58;;;;;;;-0.72;79.30;98934.88;336343;28;9805;-76
2024/01/16 00:17:31;;;;;;;3.92;1.83;;;;;;;-0.72;79.31;98934.88;338718;28;4770;-76
2024/01/16 00:17:43;;;;;;;3.80;1.88;;;;;;;-0.74;79.14;98942.50;338827;28;4769;-76
2024/01/16 00:17:56;;;;;;;4.80;1.83;;;;;;;-0.76;79.31;98933.16;335989;28;17993;-76
2024/01/16 00:18:08;;;;;;;4.25;1.70;;;;;;;-0.82;78.99;98934.84;337867;28;5282;-76
2024/01/16 00:18:20;;;;;;;3.55;1.92;;;;;;;-0.74;79.53;98931.47;335211;28;4765;-76
2024/01/16 00:18:33;;;;;;;3.28;1.70;;;;;;;-0.72;79.53;98935.72;333288;28;4682;-76
2024/01/16 00:18:45;;;;;;;3.17;1.60;;;;;;;-0.70;78.86;98933.16;336284;28;5221;-77
2024/01/16 00:18:57;;;;;;;3.25;1.65;;;;;;;-0.69;79.20;98929.75;332064;28;18409;-76
2024/01/16 00:19:11;;;;;;;3.28;1.73;;;;;;;-0.61;78.82;98938.25;335123;28;4532;-76
2024/01/16 00:19:23;;;;;;;3.13;1.70;;;;;;;-0.57;79.31;98939.13;332785;28;17951;-76
2024/01/16 00:19:35;;;;;;;2.85;1.70;;;;;;;-0.63;79.24;98934.84;334850;28;7873;-76
2024/01/16 00:19:47;;;;;;;2.17;1.50;;;;;;;-0.74;79.36;98936.56;333644;28;17253;-76
2024/01/16 00:20:00;;;;;;;2.42;1.63;;;;;;;-0.76;79.28;98938.25;340295;28;4906;-76
2024/01/16 00:20:12;;;;;;;3.05;1.67;;;;;;;-0.69;79.12;98929.75;337412;28;18167;-76
2024/01/16 00:20:25;;;;;;;4.07;1.60;;;;;;;-0.75;78.70;98934.84;340640;28;4699;-76
2024/01/16 00:20:37;;;;;;;4.05;1.52;;;;;;;-0.66;78.83;98934.88;338754;28;16554;-76
2024/01/16 00:20:49;;;;;;;3.28;1.65;;;;;;;-0.65;79.03;98929.75;339410;28;4717;-74
2024/01/16 00:21:04;;;;;;;4.63;1.80;;;;;;;-0.67;78.74;98938.25;337511;28;14101;-74
2024/01/16 00:21:16;;;;;;;4.75;1.90;;;;;;;-0.66;78.51;98934.88;337726;28;4847;-74
2024/01/16 00:21:28;;;;;;;3.65;2.10;;;;;;;-0.64;79.23;98930.63;340164;28;4654;-74
2024/01/16 00:21:41;;;;;;;4.15;2.15;;;;;;;-0.65;78.83;98931.44;339597;28;4537;-74
2024/01/16 00:21:53;;;;;;;7.15;2.28;;;;;;;-0.70;79.12;98928.06;337733;28;18091;-74
2024/01/16 00:22:05;;;;;;;6.93;2.35;;;;;;;-0.74;78.92;98931.47;337571;28;5474;-74
2024/01/16 00:22:17;;;;;;;5.88;2.28;;;;;;;-0.82;78.91;98928.88;340277;28;4746;-74
2024/01/16 00:22:29;;;;;;;3.80;1.95;;;;;;;-0.84;79.60;98933.97;339329;28;4616;-74
2024/01/16 00:22:41;;;;;;;2.97;1.65;;;;;;;-0.86;79.65;98930.56;337413;28;12293;-74
2024/01/16 00:22:53;;;;;;;3.17;1.75;;;;;;;-0.89;79.28;98933.09;338403;28;12708;-74
2024/01/16 00:23:05;;;;;;;3.22;1.75;;;;;;;-0.85;79.35;98928.88;339545;28;4649;-74
2024/01/16 00:23:18;;;;;;;3.05;1.70;;;;;;;-0.82;79.27;98929.72;337200;28;17870;-74
2024/01/16 00:23:32;;;;;;;2.83;1.60;;;;;;;-0.78;79.54;98924.66;340270;28;5773;-74
2024/01/16 00:23:44;;;;;;;3.20;1.85;;;;;;;-0.69;79.63;98929.75;338369;28;17565;-74
2024/01/16 00:23:56;;;;;;;3.38;1.92;;;;;;;-0.68;79.13;98926.34;338164;28;4621;-74
2024/01/16 00:24:08;;;;;;;3.45;1.88;;;;;;;-0.67;78.82;98928.03;335407;28;6160;-74
2024/01/16 00:24:20;;;;;;;3.58;1.90;;;;;;;-0.64;78.86;98933.16;340151;28;4684;-74
2024/01/16 00:24:32;;;;;;;4.53;2.08;;;;;;;-0.62;78.46;98926.38;337413;28;19028;-74
2024/01/16 00:24:44;;;;;;;4.15;1.90;;;;;;;-0.60;79.19;98924.66;340393;28;4903;-74
2024/01/16 00:24:56;;;;;;;3.17;1.92;;;;;;;-0.60;78.62;98927.22;337912;28;5252;-74
2024/01/16 00:25:09;;;;;;;4.40;1.77;;;;;;;-0.55;78.86;98920.41;340254;28;5439;-74
2024/01/16 00:25:21;;;;;;;4.57;1.80;;;;;;;-0.57;78.67;98928.91;340267;28;5601;-74
2024/01/16 00:25:33;;;;;;;3.67;1.88;;;;;;;-0.55;78.47;98932.31;337227;28;18164;-74
2024/01/16 00:25:45;;;;;;;2.67;1.70;;;;;;;-0.63;78.24;98927.19;340184;28;5080;-74
2024/01/16 00:25:58;;;;;;;3.00;1.80;;;;;;;-0.69;78.95;98925.47;337327;28;12929;-74
2024/01/16 00:26:20;;;;;;;3.55;2.03;;;;;;;-0.63;78.50;98933.16;340428;28;5218;-74
2024/01/16 00:26:31;;;;;;;3.10;1.77;;;;;;;-0.67;79.04;98933.16;339094;28;18251;-74
2024/01/16 00:26:44;;;;;;;3.70;1.95;;;;;;;-0.75;78.91;98928.03;339983;28;4557;-74
2024/01/16 00:26:56;;;;;;;3.50;2.03;;;;;;;-0.70;78.77;98925.50;340040;28;4574;-74
2024/01/16 00:27:08;;;;;;;4.03;1.90;;;;;;;-0.71;78.60;98928.88;337926;28;4969;-74
2024/01/16 00:27:22;;;;;;;3.65;1.65;;;;;;;-0.71;78.82;98932.28;340253;28;5313;-74
2024/01/16 00:27:34;;;;;;;3.70;1.77;;;;;;;-0.73;78.73;98925.50;337506;28;17734;-74
2024/01/16 00:27:46;;;;;;;3.28;1.65;;;;;;;-0.71;78.73;98928.88;340306;28;6118;-74
2024/01/16 00:27:58;;;;;;;3.67;1.88;;;;;;;-0.77;78.80;98931.44;336075;28;18351;-74
2024/01/16 00:28:10;;;;;;;4.70;1.88;;;;;;;-0.79;79.25;98928.03;338990;28;5179;-74
2024/01/16 00:28:22;;;;;;;6.10;1.92;;;;;;;-0.82;79.34;98929.72;338865;28;4513;-74
2024/01/16 00:28:35;;;;;;;6.13;1.88;;;;;;;-0.70;79.02;98925.50;337585;28;18642;-74
2024/01/16 00:28:47;;;;;;;4.78;1.77;;;;;;;-0.71;78.99;98932.28;336839;28;17952;-74
2024/01/16 00:28:59;;;;;;;3.63;1.60;;;;;;;-0.77;78.99;98926.34;336794;28;12071;-74
2024/01/16 00:29:12;;;;;;;2.72;1.60;;;;;;;-0.75;78.71;98934.84;338919;28;4595;-74
2024/01/16 00:29:25;;;;;;;3.83;1.88;;;;;;;-0.76;78.82;98928.06;336339;28;18098;-74
2024/01/16 00:29:37;;;;;;;4.10;1.85;;;;;;;-0.78;79.24;98929.75;338647;28;5932;-74
2024/01/16 00:29:49;;;;;;;3.35;1.70;;;;;;;-0.76;78.99;98933.16;336089;28;13340;-74
2024/01/16 00:30:02;;;;;;;2.90;1.70;;;;;;;-0.75;79.10;98940.78;334254;28;5462;-74
2024/01/16 00:30:14;;;;;;;3.42;1.73;;;;;;;-0.76;79.46;98933.16;335989;28;13325;-74
2024/01/16 00:30:26;;;;;;;3.05;1.70;;;;;;;-0.78;79.37;98929.75;339391;28;4519;-74
2024/01/16 00:30:38;;;;;;;2.88;1.80;;;;;;;-0.76;79.29;98928.06;340477;28;4522;-74
2024/01/16 00:30:50;;;;;;;4.20;2.00;;;;;;;-0.71;79.27;98926.34;337256;28;18209;-74
2024/01/16 00:31:07;;;;;;;4.43;2.03;;;;;;;-0.76;78.70;98928.06;340143;28;5458;-74
2024/01/16 00:31:19;;;;;;;3.47;1.88;;;;;;;-0.79;79.30;98922.94;337397;28;17906;-74
2024/01/16 00:31:31;;;;;;;3.67;1.95;;;;;;;-0.86;79.25;98938.22;335813;28;4762;-74
2024/01/16 00:31:44;;;;;;;2.95;1.85;;;;;;;-0.85;79.77;98932.25;341896;28;4575;-74
2024/01/16 00:31:55;;;;;;;2.85;1.70;;;;;;;-0.80;79.55;98934.84;336024;28;17738;-74
2024/01/16 00:32:08;;;;;;;3.05;1.92;;;;;;;-0.78;79.65;98934.84;341231;28;5491;-74
2024/01/16 00:32:20;;;;;;;5.10;2.00;;;;;;;-0.85;79.15;98939.91;338722;28;18274;-74
2024/01/16 00:32:32;;;;;;;10.73;2.15;;;;;;;-0.88;79.66;98932.28;341469;28;5327;-74
2024/01/16 00:32:44;;;;;;;9.98;1.85;;;;;;;-0.92;79.94;98937.38;340343;28;9235;-74
2024/01/16 00:32:56;;;;;;;3.13;1.52;;;;;;;-0.96;79.34;98935.66;334642;28;17116;-74
2024/01/16 00:33:10;;;;;;;3.25;1.70;;;;;;;-0.96;79.96;98935.66;341422;28;5829;-74
2024/01/16 00:33:22;;;;;;;3.58;2.00;;;;;;;-0.99;80.64;98935.66;338709;28;17841;-74
2024/01/16 00:33:34;;;;;;;3.80;2.10;;;;;;;-1.03;81.01;98938.22;341303;28;6023;-75
2024/01/16 00:33:46;;;;;;;3.20;1.90;;;;;;;-0.98;80.48;98940.75;338304;28;17809;-75
2024/01/16 00:33:58;;;;;;;2.67;1.58;;;;;;;-1.01;80.52;98935.63;339563;28;4539;-75
2024/01/16 00:34:10;;;;;;;3.20;1.77;;;;;;;-1.00;80.81;98939.91;337598;28;18717;-75
2024/01/16 00:34:23;;;;;;;2.97;1.80;;;;;;;-1.00;80.15;98937.34;340514;28;4681;-76
2024/01/16 00:34:35;;;;;;;3.15;1.80;;;;;;;-0.99;80.13;98939.03;335978;28;4608;-77
2024/01/16 00:34:47;;;;;;;3.00;1.83;;;;;;;-0.95;79.83;98937.34;337796;28;17906;-76
2024/01/16 00:34:59;;;;;;;3.55;1.75;;;;;;;-0.98;80.13;98933.09;340423;28;4565;-75
2024/01/16 00:35:11;;;;;;;3.38;1.70;;;;;;;-1.03;80.29;98934.78;338369;28;18305;-75
2024/01/16 00:35:23;;;;;;;3.08;1.80;;;;;;;-1.12;80.81;98940.72;341476;28;4708;-75
2024/01/16 00:35:35;;;;;;;3.05;1.88;;;;;;;-1.09;80.63;98937.31;341442;28;4529;-75
2024/01/16 00:35:47;;;;;;;2.95;1.88;;;;;;;-1.00;80.74;98939.91;334417;28;18656;-75
2024/01/16 00:35:59;;;;;;;3.42;1.92;;;;;;;-1.03;80.92;98937.34;340159;28;4533;-75
2024/01/16 00:36:11;;;;;;;4.65;2.10;;;;;;;-1.03;80.56;98937.34;337151;28;18250;-75
2024/01/16 00:36:23;;;;;;;4.63;2.10;;;;;;;-0.99;80.86;98936.50;338729;28;4970;-75
2024/01/16 00:36:35;;;;;;;4.43;2.10;;;;;;;-0.98;80.29;98933.09;339919;28;4901;-75
2024/01/16 00:36:47;;;;;;;4.60;2.20;;;;;;;-1.01;80.62;98933.09;338036;28;18350;-75
2024/01/16 00:36:59;;;;;;;4.95;2.15;;;;;;;-1.06;80.52;98939.88;340748;28;4688;-75
2024/01/16 00:37:11;;;;;;;4.68;2.10;;;;;;;-0.96;80.46;98931.41;338425;28;17856;-75
2024/01/16 00:37:23;;;;;;;4.72;1.85;;;;;;;-0.92;80.11;98937.38;333832;28;17275;-75
2024/01/16 00:37:37;;;;;;;3.50;1.65;;;;;;;-0.88;80.17;98932.28;340313;28;4576;-75
2024/01/16 00:37:49;;;;;;;2.53;1.60;;;;;;;-0.86;79.76;98933.13;337042;28;18915;-75
2024/01/16 00:38:01;;;;;;;2.53;1.60;;;;;;;-0.83;80.05;98937.38;340405;28;4644;-75
2024/01/16 00:38:13;;;;;;;3.90;1.95;;;;;;;-0.82;79.89;98929.72;337015;28;18558;-75
2024/01/16 00:38:25;;;;;;;3.85;2.13;;;;;;;-0.77;79.57;98936.53;339887;28;4779;-75
2024/01/16 00:38:37;;;;;;;3.10;1.95;;;;;;;-0.70;79.31;98943.38;338408;28;18094;-75
2024/01/16 00:38:50;;;;;;;2.50;1.70;;;;;;;-0.74;79.70;98944.22;339106;28;5180;-75
2024/01/16 00:39:03;;;;;;;4.95;2.00;;;;;;;-0.71;78.47;98941.66;337289;28;16360;-75
2024/01/16 00:39:15;;;;;;;5.10;1.80;;;;;;;-0.72;79.49;98939.97;339949;28;5198;-75
2024/01/16 00:39:27;;;;;;;4.18;1.70;;;;;;;-0.75;78.85;98930.59;338247;28;11309;-75
2024/01/16 00:39:39;;;;;;;3.08;1.40;;;;;;;-0.72;79.02;98934.88;340571;28;4662;-75
2024/01/16 00:39:51;;;;;;;3.83;1.75;;;;;;;-0.66;79.12;98940.81;341057;28;5336;-75
2024/01/16 00:40:04;;;;;;;3.42;1.77;;;;;;;-0.70;78.75;98939.13;333792;28;18260;-75
2024/01/16 00:40:16;;;;;;;3.08;1.60;;;;;;;-0.65;78.91;98941.66;341330;28;4678;-75
2024/01/16 00:40:28;;;;;;;2.78;1.67;;;;;;;-0.68;78.88;98944.22;338305;28;18171;-75
2024/01/16 00:40:40;;;;;;;4.85;1.90;;;;;;;-0.68;78.94;98939.97;340378;28;5140;-75
2024/01/16 00:40:52;;;;;;;5.55;1.92;;;;;;;-0.66;78.94;98939.97;337545;28;18039;-75
2024/01/16 00:41:04;;;;;;;5.05;1.95;;;;;;;-0.63;78.32;98950.16;340030;28;5191;-75
2024/01/16 00:41:16;;;;;;;5.03;1.90;;;;;;;-0.73;79.13;98944.19;337879;28;10026;-75
2024/01/16 00:41:28;;;;;;;4.45;1.83;;;;;;;-0.70;78.64;98949.31;339289;28;18274;-75
2024/01/16 00:41:40;;;;;;;5.15;1.70;;;;;;;-0.72;79.05;98935.72;339736;28;4708;-75
2024/01/16 00:41:52;;;;;;;4.30;1.70;;;;;;;-0.73;78.92;98948.47;337771;28;12655;-75
2024/01/16 00:42:05;;;;;;;4.45;1.67;;;;;;;-0.78;79.03;98943.34;340699;28;4520;-74
2024/01/16 00:42:17;;;;;;;3.17;1.50;;;;;;;-0.77;79.33;98941.66;336357;28;12971;-74
2024/01/16 00:42:31;;;;;;;3.10;1.60;;;;;;;-0.85;79.15;98937.38;338887;28;4734;-74
2024/01/16 00:42:43;;;;;;;2.90;1.50;;;;;;;-0.87;79.08;98941.63;336076;28;17985;-74
2024/01/16 00:42:55;;;;;;;3.17;1.70;;;;;;;-0.83;79.62;98938.22;339907;28;5662;-74
2024/01/16 00:43:08;;;;;;;3.40;1.88;;;;;;;-0.76;79.25;98938.25;335584;28;7914;-75
2024/01/16 00:43:20;;;;;;;3.42;1.75;;;;;;;-0.77;79.54;98941.66;336783;28;19085;-75
2024/01/16 00:43:32;;;;;;;4.68;1.80;;;;;;;-0.75;79.17;98945.06;339873;28;4535;-75
2024/01/16 00:43:44;;;;;;;6.50;2.25;;;;;;;-0.71;79.34;98936.56;337133;28;18306;-75
2024/01/16 00:43:56;;;;;;;5.68;2.05;;;;;;;-0.73;79.16;98943.34;339777;28;4791;-75
2024/01/16 00:44:08;;;;;;;4.80;1.60;;;;;;;-0.72;79.06;98942.53;337212;28;4744;-75
2024/01/16 00:44:20;;;;;;;4.20;1.50;;;;;;;-0.59;78.96;98940.81;339927;28;4588;-75
2024/01/16 00:44:32;;;;;;;4.93;1.52;;;;;;;-0.52;78.93;98943.38;340445;28;5372;-75
2024/01/16 00:44:44;;;;;;;2.47;1.42;;;;;;;-0.46;78.14;98937.44;338486;28;17906;-75
2024/01/16 00:44:57;;;;;;;1.92;1.38;;;;;;;-0.45;78.31;98939.97;340326;28;5415;-75
2024/01/16 00:45:09;;;;;;;2.67;1.52;;;;;;;-0.43;77.80;98938.25;337142;28;17946;-75
2024/01/16 00:45:22;;;;;;;4.20;1.60;;;;;;;-0.49;78.15;98933.16;340417;28;4690;-75
2024/01/16 00:45:34;;;;;;;3.88;1.52;;;;;;;-0.57;77.94;98934.84;337972;28;16840;-75
2024/01/16 00:45:47;;;;;;;3.60;1.63;;;;;;;-0.56;78.22;98939.13;340490;28;4592;-75
2024/01/16 00:45:59;;;;;;;4.18;1.88;;;;;;;-0.55;77.81;98938.25;333271;28;18531;-75
2024/01/16 00:46:11;;;;;;;3.90;1.85;;;;;;;-0.49;77.66;98939.97;340159;28;4766;-75
2024/01/16 00:46:23;;;;;;;4.13;1.80;;;;;;;-0.54;78.13;98945.09;338145;28;5204;-75
2024/01/16 00:46:35;;;;;;;5.78;2.00;;;;;;;-0.57;78.34;98937.41;341192;28;4646;-75
2024/01/16 00:46:47;;;;;;;5.70;1.95;;;;;;;-0.54;78.50;98939.97;341578;28;4611;-75
2024/01/16 00:47:01;;;;;;;6.43;2.17;;;;;;;-0.57;78.57;98942.50;337503;28;5274;-75
2024/01/16 00:47:14;;;;;;;5.00;2.03;;;;;;;-0.69;77.94;98935.69;340021;28;9209;-75
2024/01/16 00:47:26;;;;;;;3.05;1.75;;;;;;;-0.74;78.19;98939.97;337876;28;19878;-75
2024/01/16 00:47:38;;;;;;;3.42;1.80;;;;;;;-0.75;79.00;98940.78;335761;28;5208;-75
2024/01/16 00:47:50;;;;;;;4.03;2.08;;;;;;;-0.83;78.64;98939.94;336262;28;18122;-75
2024/01/16 00:48:04;;;;;;;3.65;2.20;;;;;;;-0.92;79.18;98943.31;338647;28;4508;-75
2024/01/16 00:48:17;;;;;;;3.33;1.95;;;;;;;-0.92;79.09;98943.31;335539;28;18134;-75
2024/01/16 00:48:29;;;;;;;3.13;1.80;;;;;;;-0.96;79.29;98936.50;336366;28;8813;-75
2024/01/16 00:48:42;;;;;;;3.60;1.90;;;;;;;-0.94;79.09;98939.06;338545;28;5034;-75
2024/01/16 00:48:54;;;;;;;2.97;1.77;;;;;;;-0.91;79.63;98939.91;334337;28;4671;-75
2024/01/16 00:49:07;;;;;;;2.67;1.42;;;;;;;-0.89;79.22;98938.22;337232;28;18075;-75
2024/01/16 00:49:19;;;;;;;3.85;1.67;;;;;;;-0.87;79.57;98940.78;337619;28;12066;-75
2024/01/16 00:49:33;;;;;;;3.60;1.85;;;;;;;-0.85;79.67;98945.03;340428;28;5254;-75
2024/01/16 00:49:45;;;;;;;3.15;2.03;;;;;;;-0.86;79.70;98943.34;337831;28;17846;-75
2024/01/16 00:49:57;;;;;;;3.00;1.98;;;;;;;-0.83;79.60;98938.22;340507;28;5142;-75
2024/01/16 00:50:09;;;;;;;3.88;2.28;;;;;;;-0.81;79.56;98941.63;341522;28;4542;-75
2024/01/16 00:50:21;;;;;;;3.78;1.90;;;;;;;-0.77;79.21;98939.09;338261;28;18058;-75
2024/01/16 00:50:33;;;;;;;4.38;1.67;;;;;;;-0.75;78.93;98945.06;336027;28;4625;-75
2024/01/16 00:50:46;;;;;;;4.68;1.85;;;;;;;-0.73;78.94;98948.47;337735;28;13786;-75
2024/01/16 00:50:58;;;;;;;3.63;1.90;;;;;;;-0.74;78.58;98941.66;338664;28;4729;-75
2024/01/16 00:51:10;;;;;;;3.00;1.95;;;;;;;-0.74;79.17;98946.78;339196;28;5441;-75
2024/01/16 00:51:22;;;;;;;3.15;2.00;;;;;;;-0.71;79.07;98946.75;336149;28;18280;-75
2024/01/16 00:51:34;;;;;;;3.75;1.88;;;;;;;-0.71;78.35;98946.75;338629;28;4516;-75
2024/01/16 00:51:46;;;;;;;4.30;1.80;;;;;;;-0.72;78.51;98945.06;335190;28;11924;-75
2024/01/16 00:51:58;;;;;;;4.05;1.80;;;;;;;-0.72;78.54;98943.38;336427;28;17868;-75
2024/01/16 00:52:10;;;;;;;4.80;1.98;;;;;;;-0.73;78.67;98938.25;338939;28;4754;-75
2024/01/16 00:52:22;;;;;;;4.43;1.90;;;;;;;-0.73;78.54;98939.09;336103;28;19076;-75
2024/01/16 00:52:34;;;;;;;4.45;2.00;;;;;;;-0.69;78.55;98934.84;340098;28;4566;-75
2024/01/16 00:52:46;;;;;;;3.78;2.10;;;;;;;-0.66;78.73;98942.53;337233;28;18558;-75
2024/01/16 00:52:58;;;;;;;3.25;1.80;;;;;;;-0.57;78.87;98944.22;340191;28;5261;-75
2024/01/16 00:53:10;;;;;;;2.33;1.60;;;;;;;-0.59;78.07;98939.13;341241;28;4715;-75
2024/01/16 00:53:22;;;;;;;2.40;1.55;;;;;;;-0.60;78.50;98945.09;337622;28;18282;-75
2024/01/16 00:53:40;;;;;;;4.07;1.80;;;;;;;-0.64;78.20;98940.81;340291;28;4617;-75
2024/01/16 00:53:52;;;;;;;4.00;1.52;;;;;;;-0.63;77.86;98942.50;338638;28;17416;-75
2024/01/16 00:54:07;;;;;;;2.70;1.35;;;;;;;-0.68;77.92;98941.66;341698;28;4726;-75
2024/01/16 00:54:19;;;;;;;2.60;1.55;;;;;;;-0.69;78.31;98940.78;339239;28;18853;-75
2024/01/16 00:54:31;;;;;;;4.00;1.88;;;;;;;-0.57;78.10;98939.97;340436;28;16274;-75
2024/01/16 00:54:43;;;;;;;4.25;1.95;;;;;;;-0.54;77.89;98939.97;332769;28;17969;-75
2024/01/16 00:54:55;;;;;;;3.70;1.83;;;;;;;-0.59;78.49;98941.66;340503;28;5745;-75
2024/01/16 00:55:08;;;;;;;3.30;1.98;;;;;;;-0.58;77.78;98940.81;339112;28;18340;-75
2024/01/16 00:55:20;;;;;;;6.45;1.95;;;;;;;-0.59;77.75;98940.81;341766;28;4691;-75
2024/01/16 00:55:32;;;;;;;6.25;2.03;;;;;;;-0.59;78.34;98941.66;337671;28;16385;-75
2024/01/16 00:55:44;;;;;;;5.50;1.90;;;;;;;-0.60;78.35;98945.09;340275;28;5114;-75
2024/01/16 00:55:56;;;;;;;3.22;2.00;;;;;;;-0.62;78.16;98947.63;340049;28;4527;-75
2024/01/16 00:56:09;;;;;;;3.60;2.22;;;;;;;-0.63;77.82;98942.50;337512;28;18320;-75
2024/01/16 00:56:21;;;;;;;3.28;2.05;;;;;;;-0.68;78.10;98944.22;338804;28;14454;-75
2024/01/16 00:56:35;;;;;;;3.35;1.83;;;;;;;-0.67;78.45;98948.47;339015;28;17976;-75
2024/01/16 00:56:48;;;;;;;3.92;1.73;;;;;;;-0.64;77.91;98943.38;337591;28;18077;-75
2024/01/16 00:57:00;;;;;;;3.60;1.80;;;;;;;-0.60;77.93;98945.09;340189;28;5399;-75
2024/01/16 00:57:12;;;;;;;3.90;2.00;;;;;;;-0.63;78.28;98948.47;337586;28;18347;-75
2024/01/16 00:57:24;;;;;;;7.15;1.98;;;;;;;-0.64;78.27;98939.13;339534;28;5530;-75
2024/01/16 00:57:36;;;;;;;7.05;1.80;;;;;;;-0.63;78.31;98940.81;340023;28;4697;-75
2024/01/16 00:57:48;;;;;;;5.70;1.67;;;;;;;-0.66;78.31;98937.41;337361;28;18340;-75
2024/01/16 00:58:00;;;;;;;2.78;1.70;;;;;;;-0.60;77.99;98934.88;340983;28;4665;-75
2024/01/16 00:58:12;;;;;;;3.13;1.75;;;;;;;-0.56;78.46;98939.13;338427;28;18208;-75
2024/01/16 00:58:24;;;;;;;3.67;1.90;;;;;;;-0.60;78.03;98939.97;341408;28;5536;-75
2024/01/16 00:58:37;;;;;;;3.58;1.80;;;;;;;-0.58;78.21;98940.81;338893;28;4868;-75
2024/01/16 00:58:49;;;;;;;2.90;1.60;;;;;;;-0.57;77.79;98949.34;341125;28;5547;-75
2024/01/16 00:59:02;;;;;;;2.15;1.42;;;;;;;-0.56;78.44;98946.78;335370;28;4698;-75
2024/01/16 00:59:14;;;;;;;2.28;1.55;;;;;;;-0.56;78.29;98941.69;336812;28;17869;-75
2024/01/16 00:59:26;;;;;;;2.53;1.60;;;;;;;-0.54;77.92;98939.97;340211;28;4645;-75